Adventuress — WCX8691 — position and weather

sailwx.info

Track history (hours):
 
Tides and Currents Weather Stations Pressure Air Temp Water Temp Dewpoint Dewpoint Depression Visibility Wind Speed Wind Dir Waves Ship Positions

Adventuress (United States)

Ship's website: http://www.soundexp.org/

Owner: SOUND EXPERIENCE, PORT TOWNSEND, WA. More information available from US FCC via Universal Licensing System and Coast Guard Vessel Documentation Center.

Last reported at 2016-Oct-18 14:25 UTC. Time now 2016-Dec-06 12:11 UTC.
Position N 48°06' W 122°47'.
Warning: this ship's position is 48 days out of date.

Type: Passenger vessel. MMSI: 367323180.

Date/timePositionNaut miles runAvg speedWind from/ knotsBaromVisibWave heightAir tempDewpointWater temp
2016-Oct-18 14:25N 48°06' W 122°47'0 0.0
2016-Oct-18 10:10N 48°06' W 122°47'0 0.0
2016-Oct-18 01:30N 48°06' W 122°47'15 0.5
2016-Oct-16 17:34N 47°56' W 122°31'16 5.2
2016-Oct-16 14:32N 47°41' W 122°24'0 0.0
2016-Oct-16 12:29N 47°41' W 122°24'0 0.0
2016-Oct-16 11:30N 47°41' W 122°24'0 0.0
2016-Oct-16 10:33N 47°41' W 122°24'0 0.0
2016-Oct-16 09:32N 47°41' W 122°24'0 0.0
2016-Oct-16 05:32N 47°41' W 122°24'0 0.0
2016-Oct-16 04:32N 47°41' W 122°24'0 0.0
2016-Oct-16 02:33N 47°41' W 122°24'0 0.0
2016-Oct-16 01:33N 47°41' W 122°24'0 0.0
2016-Oct-15 23:32N 47°41' W 122°24'0 0.0
2016-Oct-15 22:33N 47°41' W 122°24'0 0.0
2016-Oct-15 19:32N 47°41' W 122°24'0 0.0
2016-Oct-15 17:32N 47°41' W 122°24'0 0.0
2016-Oct-15 16:32N 47°41' W 122°24'0 0.0
2016-Oct-15 14:32N 47°41' W 122°24'0 0.0
2016-Oct-15 11:32N 47°41' W 122°24'0 0.0
2016-Oct-15 06:32N 47°41' W 122°24'0 0.0
2016-Oct-15 04:32N 47°41' W 122°24'0 0.0
2016-Oct-14 23:32N 47°41' W 122°24'0 0.0
2016-Oct-14 18:32N 47°41' W 122°24'0 0.0
2016-Oct-14 17:32N 47°41' W 122°24'0 0.0
2016-Oct-14 16:32N 47°41' W 122°24'0 0.0
2016-Oct-14 15:32N 47°41' W 122°24'0 0.0
2016-Oct-14 14:32N 47°41' W 122°24'0 0.0
2016-Oct-14 13:29N 47°41' W 122°24'0 0.0
2016-Oct-14 11:32N 47°41' W 122°24'0 0.0
2016-Oct-14 10:32N 47°41' W 122°24'0 0.0
2016-Oct-14 09:32N 47°41' W 122°24'0 0.0
2016-Oct-14 07:32N 47°41' W 122°24'0 0.0
2016-Oct-14 02:32N 47°41' W 122°24'0 0.0
2016-Oct-13 22:32N 47°41' W 122°24'0 0.0
2016-Oct-13 21:32N 47°41' W 122°24'0 0.0
2016-Oct-13 20:32N 47°41' W 122°24'0 0.0
2016-Oct-13 17:32N 47°41' W 122°24'0 0.0
2016-Oct-13 16:32N 47°41' W 122°24'0 0.0
2016-Oct-13 14:32N 47°41' W 122°24'0 0.0
2016-Oct-13 13:32N 47°41' W 122°24'0 0.0
2016-Oct-13 12:32N 47°41' W 122°24'0 0.0
2016-Oct-12 13:29N 47°41' W 122°24'0 0.0
2016-Oct-12 10:32N 47°41' W 122°24'0 0.0
2016-Oct-12 07:29N 47°41' W 122°24'0 0.0
2016-Oct-12 03:30N 47°41' W 122°24'0 0.0
2016-Oct-12 01:32N 47°41' W 122°24'1 0.1
2016-Oct-11 20:32N 47°40' W 122°25'0 0.4
2016-Oct-11 19:33N 47°41' W 122°26'1 0.4
2016-Oct-11 17:33N 47°41' W 122°25'1 0.2
2016-Oct-11 14:31N 47°41' W 122°24'0 0.0
2016-Oct-11 09:31N 47°41' W 122°24'0 0.0
2016-Oct-11 03:31N 47°41' W 122°24'0 0.0
2016-Oct-11 02:31N 47°41' W 122°24'0 0.0
2016-Oct-11 01:31N 47°41' W 122°24'0 0.0
2016-Oct-10 23:31N 47°41' W 122°24'0 0.0
2016-Oct-10 22:31N 47°41' W 122°24'0 0.0
2016-Oct-10 14:31N 47°41' W 122°24'0 0.0
2016-Oct-10 13:31N 47°41' W 122°24'0 0.0
2016-Oct-10 12:28N 47°41' W 122°24'0 0.0
2016-Oct-10 09:31N 47°41' W 122°24'0 0.0
2016-Oct-10 07:31N 47°41' W 122°24'0 0.0
2016-Oct-10 01:28N 47°41' W 122°24'0 0.0
2016-Oct-10 00:31N 47°41' W 122°24'0 0.0
2016-Oct-09 22:31N 47°41' W 122°24'  
Track history (hours):
 
Tides and Currents Weather Stations Pressure Air Temp Water Temp Dewpoint Dewpoint Depression Visibility Wind Speed Wind Dir Waves Ship Positions

Adventuress (United States)

Ship's website: http://www.soundexp.org/

Owner: SOUND EXPERIENCE, PORT TOWNSEND, WA. More information available from US FCC via Universal Licensing System and Coast Guard Vessel Documentation Center.

Last reported at 2016-Oct-18 14:25 UTC. Time now 2016-Dec-06 12:11 UTC.
Position N 48°06' W 122°47'.
Warning: this ship's position is 48 days out of date.

Type: Passenger vessel. MMSI: 367323180.

Date/timePositionNaut miles runAvg speedWind from/ knotsBaromVisibWave heightAir tempDewpointWater temp
2016-Oct-18 14:25N 48°06' W 122°47'0 0.0
2016-Oct-18 10:10N 48°06' W 122°47'0 0.0
2016-Oct-18 01:30N 48°06' W 122°47'15 0.5
2016-Oct-16 17:34N 47°56' W 122°31'16 5.2
2016-Oct-16 14:32N 47°41' W 122°24'0 0.0
2016-Oct-16 12:29N 47°41' W 122°24'0 0.0
2016-Oct-16 11:30N 47°41' W 122°24'0 0.0
2016-Oct-16 10:33N 47°41' W 122°24'0 0.0
2016-Oct-16 09:32N 47°41' W 122°24'0 0.0
2016-Oct-16 05:32N 47°41' W 122°24'0 0.0
2016-Oct-16 04:32N 47°41' W 122°24'0 0.0
2016-Oct-16 02:33N 47°41' W 122°24'0 0.0
2016-Oct-16 01:33N 47°41' W 122°24'0 0.0
2016-Oct-15 23:32N 47°41' W 122°24'0 0.0
2016-Oct-15 22:33N 47°41' W 122°24'0 0.0
2016-Oct-15 19:32N 47°41' W 122°24'0 0.0
2016-Oct-15 17:32N 47°41' W 122°24'0 0.0
2016-Oct-15 16:32N 47°41' W 122°24'0 0.0
2016-Oct-15 14:32N 47°41' W 122°24'0 0.0
2016-Oct-15 11:32N 47°41' W 122°24'0 0.0
2016-Oct-15 06:32N 47°41' W 122°24'0 0.0
2016-Oct-15 04:32N 47°41' W 122°24'0 0.0
2016-Oct-14 23:32N 47°41' W 122°24'0 0.0
2016-Oct-14 18:32N 47°41' W 122°24'0 0.0
2016-Oct-14 17:32N 47°41' W 122°24'0 0.0
2016-Oct-14 16:32N 47°41' W 122°24'0 0.0
2016-Oct-14 15:32N 47°41' W 122°24'0 0.0
2016-Oct-14 14:32N 47°41' W 122°24'0 0.0
2016-Oct-14 13:29N 47°41' W 122°24'0 0.0
2016-Oct-14 11:32N 47°41' W 122°24'0 0.0
2016-Oct-14 10:32N 47°41' W 122°24'0 0.0
2016-Oct-14 09:32N 47°41' W 122°24'0 0.0
2016-Oct-14 07:32N 47°41' W 122°24'0 0.0
2016-Oct-14 02:32N 47°41' W 122°24'0 0.0
2016-Oct-13 22:32N 47°41' W 122°24'0 0.0
2016-Oct-13 21:32N 47°41' W 122°24'0 0.0
2016-Oct-13 20:32N 47°41' W 122°24'0 0.0
2016-Oct-13 17:32N 47°41' W 122°24'0 0.0
2016-Oct-13 16:32N 47°41' W 122°24'0 0.0
2016-Oct-13 14:32N 47°41' W 122°24'0 0.0
2016-Oct-13 13:32N 47°41' W 122°24'0 0.0
2016-Oct-13 12:32N 47°41' W 122°24'0 0.0
2016-Oct-12 13:29N 47°41' W 122°24'0 0.0
2016-Oct-12 10:32N 47°41' W 122°24'0 0.0
2016-Oct-12 07:29N 47°41' W 122°24'0 0.0
2016-Oct-12 03:30N 47°41' W 122°24'0 0.0
2016-Oct-12 01:32N 47°41' W 122°24'1 0.1
2016-Oct-11 20:32N 47°40' W 122°25'0 0.4
2016-Oct-11 19:33N 47°41' W 122°26'1 0.4
2016-Oct-11 17:33N 47°41' W 122°25'1 0.2
2016-Oct-11 14:31N 47°41' W 122°24'0 0.0
2016-Oct-11 09:31N 47°41' W 122°24'0 0.0
2016-Oct-11 03:31N 47°41' W 122°24'0 0.0
2016-Oct-11 02:31N 47°41' W 122°24'0 0.0
2016-Oct-11 01:31N 47°41' W 122°24'0 0.0
2016-Oct-10 23:31N 47°41' W 122°24'0 0.0
2016-Oct-10 22:31N 47°41' W 122°24'0 0.0
2016-Oct-10 14:31N 47°41' W 122°24'0 0.0
2016-Oct-10 13:31N 47°41' W 122°24'0 0.0
2016-Oct-10 12:28N 47°41' W 122°24'0 0.0
2016-Oct-10 09:31N 47°41' W 122°24'0 0.0
2016-Oct-10 07:31N 47°41' W 122°24'0 0.0
2016-Oct-10 01:28N 47°41' W 122°24'0 0.0
2016-Oct-10 00:31N 47°41' W 122°24'0 0.0
2016-Oct-09 22:31N 47°41' W 122°24'  

Dump ship's entire track history